createdAt,value
2023-12-01T00:00:46.342Z,98926.05
2023-12-01T00:03:35.106Z,98933.56
2023-12-01T00:06:04.718Z,98932.05
2023-12-01T00:08:33.010Z,98927.69
2023-12-01T00:11:02.120Z,98928.84
2023-12-01T00:13:30.588Z,98924.50
2023-12-01T00:15:58.930Z,98919.80
2023-12-01T00:18:27.865Z,98925.73
2023-12-01T00:20:56.457Z,98926.09
2023-12-01T00:23:24.719Z,98938.20
2023-12-01T00:25:53.199Z,98934.67
2023-12-01T00:28:21.537Z,98923.77
2023-12-01T00:30:50.168Z,98922.80
2023-12-01T00:33:18.781Z,98915.34
2023-12-01T00:35:47.339Z,98914.55
2023-12-01T00:38:15.595Z,98913.39
2023-12-01T00:40:44.038Z,98907.60
2023-12-01T00:43:14.218Z,98906.99
2023-12-01T00:45:42.591Z,98905.02
2023-12-01T00:48:11.311Z,98901.02
2023-12-01T00:50:41.030Z,98893.73
2023-12-01T00:53:10.383Z,98890.24
2023-12-01T00:55:38.647Z,98897.36
2023-12-01T00:58:06.939Z,98907.98
2023-12-01T01:00:35.318Z,98910.91
2023-12-01T01:03:03.781Z,98919.00
2023-12-01T01:05:32.399Z,98916.64
2023-12-01T01:08:01.666Z,98918.90
2023-12-01T01:10:30.151Z,98912.63
2023-12-01T01:12:58.606Z,98906.48
2023-12-01T01:15:26.912Z,98908.59
2023-12-01T01:17:55.390Z,98904.70
2023-12-01T01:20:23.574Z,98900.70
2023-12-01T01:22:51.417Z,98888.09
2023-12-01T01:25:19.441Z,98888.90
2023-12-01T01:27:47.510Z,98891.92
2023-12-01T01:30:15.577Z,98885.73
2023-12-01T01:32:43.536Z,98895.67
2023-12-01T01:35:11.589Z,98900.14
2023-12-01T01:37:41.109Z,98905.17
2023-12-01T01:40:09.352Z,98907.15
2023-12-01T01:42:37.426Z,98918.05
2023-12-01T01:45:06.587Z,98925.84
2023-12-01T01:47:35.206Z,98930.86
2023-12-01T01:50:04.837Z,98933.42
2023-12-01T01:52:33.705Z,98934.98
2023-12-01T01:55:01.912Z,98937.38
2023-12-01T01:57:37.252Z,98935.59
2023-12-01T02:00:07.612Z,98933.11
2023-12-01T02:02:41.446Z,98932.87
2023-12-01T02:05:14.947Z,98935.17
2023-12-01T02:07:43.121Z,98937.85
2023-12-01T02:10:17.185Z,98938.09
2023-12-01T02:12:46.659Z,98942.50
2023-12-01T02:15:14.816Z,98944.30
2023-12-01T02:17:42.725Z,98948.16
2023-12-01T02:20:16.928Z,98952.90
2023-12-01T02:22:46.168Z,98962.52
2023-12-01T02:25:14.104Z,98968.30
2023-12-01T02:27:42.265Z,98967.22
2023-12-01T02:30:13.266Z,98959.24
2023-12-01T02:32:41.322Z,98958.65
2023-12-01T02:35:11.696Z,98962.48
2023-12-01T02:37:39.604Z,98958.00
2023-12-01T02:40:17.618Z,98947.02
2023-12-01T02:42:50.920Z,98939.80
2023-12-01T02:45:20.256Z,98934.28
2023-12-01T02:47:51.636Z,98928.43
2023-12-01T02:50:20.077Z,98918.06
2023-12-01T02:52:48.449Z,98913.17
2023-12-01T02:55:16.713Z,98922.23
2023-12-01T02:57:45.179Z,98938.98
2023-12-01T03:00:16.957Z,98962.36
2023-12-01T03:02:45.736Z,98972.86
2023-12-01T03:05:14.013Z,98968.13
2023-12-01T03:07:42.622Z,98962.27
2023-12-01T03:10:10.905Z,98956.62
2023-12-01T03:12:40.983Z,98953.08
2023-12-01T03:15:14.058Z,98944.59
2023-12-01T03:17:42.334Z,98935.05
2023-12-01T03:20:12.036Z,98934.31
2023-12-01T03:22:41.526Z,98940.11
2023-12-01T03:25:13.663Z,98935.05
2023-12-01T03:27:44.667Z,98929.52
2023-12-01T03:30:17.804Z,98916.65
2023-12-01T03:32:47.545Z,98910.09
2023-12-01T03:35:18.108Z,98904.41
2023-12-01T03:37:46.378Z,98938.23
2023-12-01T03:40:15.442Z,98938.54
2023-12-01T03:42:53.412Z,98939.40
2023-12-01T03:45:22.308Z,98927.60
2023-12-01T03:47:51.796Z,98957.00
2023-12-01T03:50:20.910Z,98953.96
2023-12-01T03:52:51.185Z,98953.28
2023-12-01T03:55:19.618Z,98958.73
2023-12-01T03:57:47.559Z,98952.48
2023-12-01T04:00:19.497Z,98958.39
2023-12-01T04:02:49.460Z,98962.36
2023-12-01T04:05:21.968Z,98938.20
2023-12-01T04:07:55.322Z,98939.48
2023-12-01T04:10:27.818Z,98937.80
2023-12-01T04:12:56.913Z,98935.60
2023-12-01T04:15:28.963Z,98932.03
2023-12-01T04:17:57.060Z,98943.55
2023-12-01T04:20:29.081Z,98937.30
2023-12-01T04:23:02.262Z,98935.30
2023-12-01T04:25:31.099Z,98935.09
2023-12-01T04:27:59.825Z,98943.77
2023-12-01T04:30:28.407Z,98957.97
2023-12-01T04:32:58.799Z,98956.70
2023-12-01T04:35:29.497Z,98945.32
2023-12-01T04:37:59.302Z,98955.25
2023-12-01T04:40:29.095Z,98949.36
2023-12-01T04:42:58.823Z,98952.54
2023-12-01T04:45:28.568Z,98948.59
2023-12-01T04:47:56.813Z,98952.17
2023-12-01T04:50:31.057Z,98964.23
2023-12-01T04:53:02.025Z,98974.91
2023-12-01T04:55:31.320Z,98972.08
2023-12-01T04:58:02.081Z,98956.41
2023-12-01T05:00:29.861Z,98956.98
2023-12-01T05:03:06.601Z,98966.60
2023-12-01T05:05:36.872Z,98965.04
2023-12-01T05:08:10.337Z,98974.50
2023-12-01T05:10:39.357Z,98979.30
2023-12-01T05:13:08.698Z,98974.92
2023-12-01T05:15:38.474Z,98981.21
2023-12-01T05:18:08.606Z,98989.50
2023-12-01T05:20:37.116Z,98991.79
2023-12-01T05:23:12.613Z,99000.41
2023-12-01T05:25:43.290Z,98993.80
2023-12-01T05:28:12.898Z,98986.98
2023-12-01T05:30:47.432Z,98991.74
2023-12-01T05:33:15.851Z,98988.67
2023-12-01T05:35:44.745Z,98985.81
2023-12-01T05:38:12.760Z,98985.52
2023-12-01T05:40:40.740Z,98984.91
2023-12-01T05:43:09.312Z,98988.06
2023-12-01T05:45:38.207Z,98990.21
2023-12-01T05:48:10.586Z,98989.74
2023-12-01T05:50:43.482Z,98983.84
2023-12-01T05:53:12.822Z,98968.66
2023-12-01T05:55:40.619Z,98962.41
2023-12-01T05:58:11.623Z,98968.58
2023-12-01T06:00:41.389Z,98962.88
2023-12-01T06:03:12.018Z,98961.97
2023-12-01T06:05:40.797Z,98978.58
2023-12-01T06:08:12.303Z,98985.48
2023-12-01T06:10:40.807Z,98989.28
2023-12-01T06:13:09.675Z,98976.60
2023-12-01T06:15:37.895Z,98973.08
2023-12-01T06:18:05.997Z,98977.24
2023-12-01T06:20:35.998Z,98975.49
2023-12-01T06:23:09.246Z,98972.73
2023-12-01T06:25:39.906Z,98977.29
2023-12-01T06:28:11.151Z,98981.66
2023-12-01T06:30:40.052Z,98986.02
2023-12-01T06:33:09.384Z,98991.11
2023-12-01T06:35:38.659Z,98992.74
2023-12-01T06:38:08.116Z,98990.92
2023-12-01T06:40:36.065Z,98992.54
2023-12-01T06:43:12.177Z,99001.58
2023-12-01T06:45:44.289Z,99002.92
2023-12-01T06:48:14.219Z,99007.70
2023-12-01T06:50:42.782Z,99006.99
2023-12-01T06:53:11.979Z,99006.81
2023-12-01T06:55:41.692Z,99008.53
2023-12-01T06:58:11.046Z,99010.77
2023-12-01T07:00:40.562Z,99003.73
2023-12-01T07:03:09.972Z,98996.31
2023-12-01T07:05:39.945Z,99004.06
2023-12-01T07:08:16.818Z,99010.37
2023-12-01T07:10:45.725Z,99018.17
2023-12-01T07:13:14.429Z,99015.70
2023-12-01T07:15:42.986Z,99010.34
2023-12-01T07:18:13.338Z,99009.11
2023-12-01T07:20:41.298Z,99011.75
2023-12-01T07:23:09.454Z,99011.45
2023-12-01T07:25:37.885Z,99002.29
2023-12-01T07:28:08.000Z,98998.67
2023-12-01T07:30:42.252Z,99000.41
2023-12-01T07:33:31.183Z,99007.31
2023-12-01T07:36:35.474Z,99013.04
2023-12-01T07:39:02.869Z,99016.14
2023-12-01T07:41:33.232Z,99023.00
2023-12-01T07:44:01.049Z,99020.66
2023-12-01T07:46:29.414Z,99027.84
2023-12-01T07:49:08.828Z,99034.53
2023-12-01T07:51:37.738Z,99032.52
2023-12-01T07:54:05.789Z,99025.65
2023-12-01T07:56:33.495Z,99028.69
2023-12-01T07:59:07.027Z,99030.39
2023-12-01T08:01:35.037Z,99028.88
2023-12-01T08:04:03.848Z,99021.92
2023-12-01T08:06:33.936Z,99025.59
2023-12-01T08:09:02.272Z,99033.90
2023-12-01T08:11:39.414Z,99031.17
2023-12-01T08:14:13.582Z,99029.27
2023-12-01T08:16:43.708Z,99034.09
2023-12-01T08:19:11.943Z,99043.83
2023-12-01T08:21:40.180Z,99056.44
2023-12-01T08:24:08.149Z,99059.09
2023-12-01T08:26:37.665Z,99056.90
2023-12-01T08:29:06.306Z,99051.36
2023-12-01T08:31:34.443Z,99049.69
2023-12-01T08:34:02.469Z,99054.52
2023-12-01T08:36:32.608Z,99053.02
2023-12-01T08:39:01.443Z,99055.30
2023-12-01T08:41:29.626Z,99054.51
2023-12-01T08:43:58.027Z,99062.96
2023-12-01T08:46:38.420Z,99070.48
2023-12-01T08:49:10.454Z,99069.53
2023-12-01T08:51:38.223Z,99074.55
2023-12-01T08:54:12.929Z,99081.66
2023-12-01T08:56:42.998Z,99084.22
2023-12-01T08:59:11.003Z,99089.13
2023-12-01T09:01:39.307Z,99089.78
2023-12-01T09:04:07.531Z,99098.17
2023-12-01T09:06:35.831Z,99106.17
2023-12-01T09:09:06.510Z,99108.30
2023-12-01T09:11:34.387Z,99113.66
2023-12-01T09:14:02.096Z,99113.58
2023-12-01T09:16:30.386Z,99110.27
2023-12-01T09:18:58.714Z,99112.38
2023-12-01T09:21:28.217Z,99104.52
2023-12-01T09:23:56.470Z,99105.30
2023-12-01T09:26:26.967Z,99096.19
2023-12-01T09:28:55.740Z,99101.08
2023-12-01T09:31:24.553Z,99108.44
2023-12-01T09:33:55.213Z,99112.46
2023-12-01T09:36:23.774Z,99122.09
2023-12-01T09:38:51.947Z,99118.36
2023-12-01T09:41:20.303Z,99116.73
2023-12-01T09:43:54.583Z,99115.57
2023-12-01T09:46:30.791Z,99118.88
2023-12-01T09:49:00.467Z,99113.45
2023-12-01T09:51:32.126Z,99111.34
2023-12-01T09:54:01.149Z,99104.46
2023-12-01T09:56:29.501Z,99094.96
2023-12-01T09:58:58.546Z,99090.55
2023-12-01T10:01:35.112Z,99092.10
2023-12-01T10:04:10.882Z,99087.71
2023-12-01T10:06:39.003Z,99086.24
2023-12-01T10:09:14.338Z,99086.00
2023-12-01T10:11:42.649Z,99087.66
2023-12-01T10:14:12.945Z,99083.47
2023-12-01T10:16:41.932Z,99090.70
2023-12-01T10:19:13.093Z,99098.15
2023-12-01T10:21:47.873Z,99100.77
2023-12-01T10:24:25.149Z,99094.22
2023-12-01T10:26:57.082Z,99089.13
2023-12-01T10:29:48.449Z,99090.23
2023-12-01T10:32:19.516Z,99097.52
2023-12-01T10:34:53.930Z,99093.27
2023-12-01T10:37:23.530Z,99089.18
2023-12-01T10:39:55.816Z,99091.75
2023-12-01T10:42:25.329Z,99087.17
2023-12-01T10:44:56.418Z,99085.55
2023-12-01T10:47:27.564Z,99081.01
2023-12-01T10:49:59.554Z,99078.02
2023-12-01T10:52:27.323Z,99077.57
2023-12-01T10:54:55.246Z,99082.66
2023-12-01T10:57:39.649Z,99084.03
2023-12-01T11:00:29.887Z,99088.77
2023-12-01T11:03:04.941Z,99093.16
2023-12-01T11:05:36.522Z,99100.30
2023-12-01T11:08:21.773Z,99107.09
2023-12-01T11:11:03.459Z,99118.31
2023-12-01T11:13:45.186Z,99131.89
2023-12-01T11:16:15.382Z,99131.33
2023-12-01T11:18:44.923Z,99118.82
2023-12-01T11:21:12.774Z,99113.99
2023-12-01T11:23:40.708Z,99113.61
2023-12-01T11:26:10.087Z,99107.70
2023-12-01T11:28:46.008Z,99113.47
2023-12-01T11:31:20.691Z,99111.80
2023-12-01T11:33:59.158Z,99102.00
2023-12-01T11:36:38.718Z,99094.15
2023-12-01T11:39:31.507Z,99093.73
2023-12-01T11:42:00.513Z,99094.86
2023-12-01T11:44:32.154Z,99101.98
2023-12-01T11:47:04.817Z,99108.21
2023-12-01T11:49:43.295Z,99117.77
2023-12-01T11:52:14.520Z,99125.31
2023-12-01T11:54:43.502Z,99119.54
2023-12-01T11:57:14.173Z,99115.70
2023-12-01T11:59:42.788Z,99113.19
2023-12-01T12:02:11.645Z,99112.37
2023-12-01T12:04:39.785Z,99102.46
2023-12-01T12:07:09.873Z,99100.09
2023-12-01T12:09:40.636Z,99099.79
2023-12-01T12:12:19.713Z,99101.53
2023-12-01T12:14:52.411Z,99103.14
2023-12-01T12:17:23.296Z,99103.84
2023-12-01T12:19:58.494Z,99099.64
2023-12-01T12:22:31.757Z,99103.58
2023-12-01T12:25:00.250Z,99095.69
2023-12-01T12:27:38.414Z,99095.76
2023-12-01T12:30:08.573Z,99091.72
2023-12-01T12:32:38.198Z,99097.71
2023-12-01T12:35:07.578Z,99091.11
2023-12-01T12:37:36.682Z,99090.47
2023-12-01T12:40:09.547Z,99084.33
2023-12-01T12:42:38.516Z,99075.88
2023-12-01T12:45:07.256Z,99078.09
2023-12-01T12:47:39.078Z,99084.32
2023-12-01T12:50:10.563Z,99092.88
2023-12-01T12:52:40.517Z,99092.80
2023-12-01T12:55:10.773Z,99089.17
2023-12-01T12:57:38.890Z,99083.05
2023-12-01T13:00:09.815Z,99082.41
2023-12-01T13:02:37.822Z,99084.86
2023-12-01T13:05:06.008Z,99090.59
2023-12-01T13:07:34.278Z,99094.58
2023-12-01T13:10:23.580Z,99098.50
2023-12-01T13:12:59.233Z,99087.02
2023-12-01T13:15:34.917Z,99080.36
2023-12-01T13:18:03.412Z,99084.66
2023-12-01T13:20:53.778Z,99087.41
2023-12-01T13:23:27.216Z,99092.92
2023-12-01T13:25:55.540Z,99089.36
2023-12-01T13:28:23.843Z,99089.36
2023-12-01T13:30:51.678Z,99096.66
2023-12-01T13:33:19.907Z,99106.63
2023-12-01T13:35:48.501Z,99106.14
2023-12-01T13:38:19.179Z,99113.70
2023-12-01T13:40:50.994Z,99102.91
2023-12-01T13:43:18.876Z,99096.80
2023-12-01T13:48:42.296Z,99105.23
2023-12-01T13:51:10.812Z,99119.39
2023-12-01T13:53:41.019Z,99128.86
2023-12-01T13:56:13.370Z,99139.98
2023-12-01T13:58:43.849Z,99142.67
2023-12-01T14:01:14.619Z,99137.90
2023-12-01T14:06:59.490Z,99145.24
2023-12-01T14:09:27.276Z,99140.98
2023-12-01T14:12:12.485Z,99147.61
2023-12-01T14:14:51.952Z,99138.52
2023-12-01T14:17:38.646Z,99134.77
2023-12-01T14:20:08.350Z,99140.04
2023-12-01T14:22:37.803Z,99134.77
2023-12-01T14:25:07.842Z,99135.28
2023-12-01T14:27:35.764Z,99135.21
2023-12-01T14:30:10.232Z,99132.94
2023-12-01T14:32:40.269Z,99131.86
2023-12-01T14:35:09.188Z,99141.24
2023-12-01T14:37:57.511Z,99154.67
2023-12-01T14:40:25.400Z,99153.54
2023-12-01T14:42:53.190Z,99149.30
2023-12-01T14:45:21.442Z,99148.93
2023-12-01T14:50:51.644Z,99127.02
2023-12-01T14:53:19.976Z,99139.83
2023-12-01T14:55:53.620Z,99146.93
2023-12-01T14:58:22.683Z,99149.93
2023-12-01T15:00:59.204Z,99144.60
2023-12-01T15:03:27.148Z,99150.02
2023-12-01T15:05:55.327Z,99162.33
2023-12-01T15:08:23.977Z,99171.67
2023-12-01T15:10:51.886Z,99178.21
2023-12-01T15:13:19.826Z,99186.59
2023-12-01T15:15:47.588Z,99194.67
2023-12-01T15:18:15.596Z,99192.13
2023-12-01T15:20:43.672Z,99197.98
2023-12-01T15:23:12.245Z,99198.20
2023-12-01T15:25:41.412Z,99194.76
2023-12-01T15:28:09.384Z,99174.70
2023-12-01T15:30:37.528Z,99154.52
2023-12-01T15:33:05.785Z,99146.47
2023-12-01T15:35:33.912Z,99152.79
2023-12-01T15:38:01.651Z,99149.63
2023-12-01T15:40:30.172Z,99139.40
2023-12-01T15:42:58.363Z,99149.18
2023-12-01T15:45:26.189Z,99165.50
2023-12-01T15:47:54.366Z,99174.64
2023-12-01T15:50:22.450Z,99178.30
2023-12-01T15:52:51.063Z,99179.25
2023-12-01T15:55:19.763Z,99182.92
2023-12-01T15:57:47.694Z,99177.14
2023-12-01T16:00:16.333Z,99186.57
2023-12-01T16:02:44.586Z,99195.17
2023-12-01T16:05:13.450Z,99198.45
2023-12-01T16:07:41.237Z,99194.56
2023-12-01T16:10:10.019Z,99200.75
2023-12-01T16:12:38.226Z,99189.71
2023-12-01T16:15:15.466Z,99170.81
2023-12-01T16:17:46.442Z,99177.63
2023-12-01T16:20:14.505Z,99188.49
2023-12-01T16:22:42.485Z,99189.19
2023-12-01T16:25:11.486Z,99188.06
2023-12-01T16:27:39.296Z,99197.92
2023-12-01T16:30:08.170Z,99208.09
2023-12-01T16:32:36.463Z,99208.44
2023-12-01T16:35:06.484Z,99196.61
2023-12-01T16:37:35.757Z,99188.08
2023-12-01T16:40:06.425Z,99181.72
2023-12-01T16:42:34.285Z,99186.23
2023-12-01T16:45:02.154Z,99178.02
2023-12-01T16:47:30.980Z,99167.48
2023-12-01T16:49:58.733Z,99167.30
2023-12-01T16:52:26.561Z,99163.50
2023-12-01T16:54:54.657Z,99157.15
2023-12-01T16:57:23.222Z,99168.52
2023-12-01T16:59:51.147Z,99188.89
2023-12-01T17:02:19.304Z,99202.86
2023-12-01T17:04:47.134Z,99215.17
2023-12-01T17:07:15.047Z,99213.09
2023-12-01T17:09:42.944Z,99206.41
2023-12-01T17:12:10.711Z,99197.48
2023-12-01T17:14:39.320Z,99206.33
2023-12-01T17:17:11.835Z,99196.94
2023-12-01T17:19:39.828Z,99203.35
2023-12-01T17:22:07.582Z,99209.15
2023-12-01T17:24:40.940Z,99197.60
2023-12-01T17:27:14.833Z,99206.48
2023-12-01T17:29:43.606Z,99216.21
2023-12-01T17:32:11.660Z,99222.91
2023-12-01T17:34:39.584Z,99224.78
2023-12-01T17:37:08.065Z,99216.46
2023-12-01T17:39:36.106Z,99208.50
2023-12-01T17:42:04.006Z,99199.11
2023-12-01T17:44:32.055Z,99207.66
2023-12-01T17:47:00.117Z,99208.27
2023-12-01T17:49:28.077Z,99213.61
2023-12-01T17:51:56.370Z,99217.59
2023-12-01T17:54:26.846Z,99209.16
2023-12-01T17:56:54.731Z,99198.66
2023-12-01T17:59:23.124Z,99186.10
2023-12-01T18:01:50.978Z,99196.80
2023-12-01T18:04:19.135Z,99201.80
2023-12-01T18:06:49.106Z,99198.90
2023-12-01T18:09:17.103Z,99192.02
2023-12-01T18:11:45.386Z,99199.63
2023-12-01T18:14:14.529Z,99197.41
2023-12-01T18:16:42.315Z,99198.66
2023-12-01T18:19:10.267Z,99204.45
2023-12-01T18:21:38.531Z,99203.25
2023-12-01T18:24:06.993Z,99195.23
2023-12-01T18:26:38.692Z,99195.15
2023-12-01T18:29:09.807Z,99206.73
2023-12-01T18:31:38.068Z,99208.11
2023-12-01T18:34:06.182Z,99205.80
2023-12-01T18:36:34.388Z,99203.90
2023-12-01T18:39:02.422Z,99206.58
2023-12-01T18:41:30.337Z,99215.73
2023-12-01T18:43:58.741Z,99220.70
2023-12-01T18:46:26.483Z,99216.11
2023-12-01T18:48:54.599Z,99214.37
2023-12-01T18:51:22.785Z,99215.05
2023-12-01T18:53:50.583Z,99215.11
2023-12-01T18:56:18.495Z,99212.67
2023-12-01T18:58:48.911Z,99220.70
2023-12-01T19:01:16.838Z,99227.54
2023-12-01T19:03:44.815Z,99232.23
2023-12-01T19:06:13.250Z,99233.75
2023-12-01T19:08:41.039Z,99228.04
2023-12-01T19:11:08.853Z,99223.84
2023-12-01T19:13:37.136Z,99223.41
2023-12-01T19:16:05.680Z,99231.84
2023-12-01T19:18:33.416Z,99234.61
2023-12-01T19:21:01.836Z,99227.70
2023-12-01T19:23:29.598Z,99221.50
2023-12-01T19:25:58.521Z,99223.65
2023-12-01T19:28:26.726Z,99226.41
2023-12-01T19:30:54.777Z,99224.58
2023-12-01T19:33:22.740Z,99221.98
2023-12-01T19:35:51.136Z,99227.55
2023-12-01T19:38:19.045Z,99240.87
2023-12-01T19:40:47.160Z,99249.85
2023-12-01T19:43:15.103Z,99242.77
2023-12-01T19:45:42.999Z,99236.36
2023-12-01T19:48:10.868Z,99234.63
2023-12-01T19:50:41.268Z,99241.95
2023-12-01T19:53:09.008Z,99247.23
2023-12-01T19:55:36.754Z,99248.98
2023-12-01T19:58:04.862Z,99253.26
2023-12-01T20:00:32.581Z,99251.53
2023-12-01T20:03:00.437Z,99250.61
2023-12-01T20:05:29.774Z,99247.29
2023-12-01T20:07:58.469Z,99240.61
2023-12-01T20:10:26.202Z,99243.37
2023-12-01T20:12:54.843Z,99247.53
2023-12-01T20:15:22.560Z,99239.95
2023-12-01T20:17:50.433Z,99242.17
2023-12-01T20:20:20.121Z,99248.06
2023-12-01T20:22:47.909Z,99239.86
2023-12-01T20:25:15.635Z,99231.35
2023-12-01T20:27:43.852Z,99222.35
2023-12-01T20:30:12.452Z,99219.23
2023-12-01T20:32:40.493Z,99225.60
2023-12-01T20:35:08.591Z,99221.73
2023-12-01T20:37:36.440Z,99217.13
2023-12-01T20:40:05.939Z,99203.24
2023-12-01T20:42:34.179Z,99199.19
2023-12-01T20:45:02.227Z,99201.00
2023-12-01T20:47:30.520Z,99202.17
2023-12-01T20:49:58.743Z,99204.84
2023-12-01T20:52:26.454Z,99216.58
2023-12-01T20:54:54.192Z,99227.05
2023-12-01T20:57:22.584Z,99235.45
2023-12-01T20:59:50.379Z,99247.48
2023-12-01T21:02:18.112Z,99255.59
2023-12-01T21:04:46.185Z,99252.35
2023-12-01T21:07:14.000Z,99255.12
2023-12-01T21:09:41.847Z,99259.85
2023-12-01T21:12:10.232Z,99267.13
2023-12-01T21:14:37.960Z,99267.50
2023-12-01T21:17:05.688Z,99270.91
2023-12-01T21:19:34.206Z,99273.88
2023-12-01T21:22:02.000Z,99275.13
2023-12-01T21:24:30.480Z,99272.27
2023-12-01T21:26:58.689Z,99269.40
2023-12-01T21:29:26.484Z,99276.52
2023-12-01T21:31:54.210Z,99277.40
2023-12-01T21:34:22.788Z,99278.27
2023-12-01T21:36:50.587Z,99278.73
2023-12-01T21:39:18.308Z,99280.39
2023-12-01T21:41:46.495Z,99274.48
2023-12-01T21:44:15.096Z,99272.82
2023-12-01T21:46:43.041Z,99268.09
2023-12-01T21:49:11.204Z,99264.06
2023-12-01T21:51:39.035Z,99269.17
2023-12-01T21:54:07.012Z,99271.57
2023-12-01T21:56:35.219Z,99275.02
2023-12-01T21:59:03.897Z,99277.02
2023-12-01T22:01:31.626Z,99286.89
2023-12-01T22:04:00.776Z,99293.62
2023-12-01T22:06:28.880Z,99296.21
2023-12-01T22:08:56.704Z,99287.00
2023-12-01T22:11:25.083Z,99292.70
2023-12-01T22:13:53.242Z,99296.00
2023-12-01T22:16:21.128Z,99297.39
2023-12-01T22:18:51.983Z,99294.32
2023-12-01T22:21:20.153Z,99292.80
2023-12-01T22:23:47.952Z,99291.43
2023-12-01T22:26:16.024Z,99295.41
2023-12-01T22:28:44.370Z,99298.16
2023-12-01T22:31:12.117Z,99291.98
2023-12-01T22:33:40.332Z,99285.17
2023-12-01T22:36:09.595Z,99286.24
2023-12-01T22:38:37.320Z,99295.56
2023-12-01T22:41:06.604Z,99299.68
2023-12-01T22:43:34.565Z,99297.63
2023-12-01T22:46:04.717Z,99302.38
2023-12-01T22:48:32.882Z,99298.77
2023-12-01T22:51:01.221Z,99300.09
2023-12-01T22:53:29.012Z,99301.76
2023-12-01T22:55:57.044Z,99306.29
2023-12-01T22:58:25.064Z,99311.05
2023-12-01T23:00:52.854Z,99314.98
2023-12-01T23:03:21.010Z,99312.63
2023-12-01T23:05:49.108Z,99307.47
2023-12-01T23:08:17.393Z,99305.41
2023-12-01T23:10:48.058Z,99300.55
2023-12-01T23:13:16.023Z,99291.77
2023-12-01T23:15:44.047Z,99285.85
2023-12-01T23:18:12.230Z,99287.86
2023-12-01T23:20:40.380Z,99286.48
2023-12-01T23:23:08.281Z,99289.02
2023-12-01T23:25:36.211Z,99283.17
2023-12-01T23:28:04.452Z,99277.38
2023-12-01T23:30:32.375Z,99272.91
2023-12-01T23:33:00.553Z,99264.98
2023-12-01T23:35:28.638Z,99256.38
2023-12-01T23:37:56.455Z,99250.06
2023-12-01T23:40:25.434Z,99241.85
2023-12-01T23:42:53.483Z,99235.13
2023-12-01T23:45:21.282Z,99236.02
2023-12-01T23:47:49.316Z,99235.02
2023-12-01T23:50:17.230Z,99237.20
2023-12-01T23:52:44.965Z,99238.36
2023-12-01T23:55:12.678Z,99239.34
2023-12-01T23:57:41.618Z,99242.54
